Time;durP1;ratioP1;P1;durP2;ratioP2;P2;SDS_P1;SDS_P2;PMS_P1;PMS_P2;Temp;Humidity;BMP_temperature;BMP_pressure;BME280_temperature;BME280_humidity;BME280_pressure;Samples;Min_cycle;Max_cycle;Signal;HPM_P1;HPM_P2
2023/08/25 00:01:38;;;;;;;0.73;0.60;;;23.00;62.70;;;;;;6195497;28;20029;-74
2023/08/25 00:04:39;;;;;;;0.50;0.50;;;23.00;62.70;;;;;;6195567;28;20070;-74
2023/08/25 00:07:39;;;;;;;0.80;0.80;;;23.00;62.70;;;;;;6195533;28;20026;-74
2023/08/25 00:10:40;;;;;;;0.85;0.70;;;23.00;62.70;;;;;;6195495;28;20390;-75
2023/08/25 00:13:41;;;;;;;0.60;0.60;;;23.00;62.70;;;;;;6195025;28;20022;-74
2023/08/25 00:16:41;;;;;;;0.95;0.70;;;23.00;62.70;;;;;;6195387;28;20065;-74
2023/08/25 00:19:42;;;;;;;0.85;0.70;;;23.00;62.70;;;;;;6196010;28;20023;-74
2023/08/25 00:22:43;;;;;;;0.70;0.68;;;23.00;62.70;;;;;;6194845;28;20030;-74
2023/08/25 00:25:46;;;;;;;2.25;0.80;;;23.00;62.70;;;;;;6194539;28;20073;-74
2023/08/25 00:28:47;;;;;;;0.70;0.63;;;23.00;62.70;;;;;;6195085;28;20022;-74
2023/08/25 00:31:47;;;;;;;0.65;0.60;;;23.00;62.70;;;;;;6194815;28;20552;-74
2023/08/25 00:34:48;;;;;;;0.75;0.73;;;23.00;62.70;;;;;;6194281;28;20113;-74
2023/08/25 00:37:48;;;;;;;0.77;0.60;;;23.00;62.70;;;;;;6194819;28;20077;-74
2023/08/25 00:40:49;;;;;;;0.80;0.80;;;23.00;62.70;;;;;;6194490;28;20038;-74
2023/08/25 00:43:49;;;;;;;1.23;0.80;;;23.00;62.70;;;;;;6194930;28;20034;-74
2023/08/25 00:46:50;;;;;;;1.30;0.90;;;23.00;63.60;;;;;;6194572;28;20038;-73
2023/08/25 00:49:52;;;;;;;0.85;0.75;;;23.00;62.70;;;;;;6193868;28;20046;-74
2023/08/25 00:52:53;;;;;;;0.82;0.80;;;23.00;62.70;;;;;;6194492;28;20061;-74
2023/08/25 00:55:54;;;;;;;0.70;0.60;;;23.00;62.80;;;;;;6194262;28;20018;-74
2023/08/25 00:58:54;;;;;;;0.57;0.50;;;23.00;62.70;;;;;;6194629;28;20026;-74
2023/08/25 01:01:56;;;;;;;0.93;0.73;;;23.00;62.70;;;;;;6193838;28;20080;-77
2023/08/25 01:04:57;;;;;;;0.80;0.75;;;23.00;62.80;;;;;;6194191;28;20129;-74
2023/08/25 01:07:58;;;;;;;0.73;0.65;;;23.00;62.70;;;;;;6194121;28;20029;-74
2023/08/25 01:11:11;;;;;;;0.70;0.60;;;23.00;62.80;;;;;;6194402;28;20456;-74
2023/08/25 01:14:36;;;;;;;0.50;0.50;;;23.00;62.70;;;;;;6193979;28;20692;-74
2023/08/25 01:17:59;;;;;;;0.55;0.55;;;23.00;62.70;;;;;;6194259;28;20022;-73
2023/08/25 01:21:03;;;;;;;1.35;0.77;;;23.00;62.70;;;;;;6194427;28;20022;-74
2023/08/25 01:24:22;;;;;;;0.60;0.60;;;23.00;62.70;;;;;;6194065;28;20018;-73
2023/08/25 01:27:23;;;;;;;0.70;0.55;;;23.00;62.70;;;;;;6193585;28;20030;-73
2023/08/25 01:30:31;;;;;;;0.73;0.60;;;23.00;62.70;;;;;;6194009;28;20026;-74
2023/08/25 01:33:33;;;;;;;0.80;0.70;;;23.00;62.70;;;;;;6193389;28;20338;-74
2023/08/25 01:36:39;;;;;;;0.70;0.70;;;23.00;62.70;;;;;;6193976;28;20054;-74
2023/08/25 01:39:44;;;;;;;0.90;0.80;;;23.00;62.70;;;;;;6193919;28;20073;-74
2023/08/25 01:42:46;;;;;;;0.85;0.70;;;23.00;62.70;;;;;;6193848;28;20508;-73
2023/08/25 01:45:49;;;;;;;0.77;0.70;;;23.00;62.70;;;;;;6193351;28;20401;-74
2023/08/25 01:48:53;;;;;;;0.80;0.70;;;23.00;62.70;;;;;;6194003;28;20025;-74
2023/08/25 01:51:54;;;;;;;0.98;0.70;;;23.00;62.80;;;;;;6193979;28;20042;-74
2023/08/25 01:54:55;;;;;;;1.27;0.77;;;23.00;62.70;;;;;;6193825;28;20019;-74
2023/08/25 01:57:55;;;;;;;1.58;0.80;;;23.00;63.60;;;;;;6193711;28;20034;-74
2023/08/25 02:00:56;;;;;;;0.63;0.60;;;23.00;62.80;;;;;;6196844;28;20037;-74
2023/08/25 02:04:00;;;;;;;1.10;0.80;;;23.00;62.80;;;;;;6200643;28;20116;-73
2023/08/25 02:07:01;;;;;;;1.00;0.60;;;23.00;62.70;;;;;;6198698;28;20034;-74
2023/08/25 02:10:02;;;;;;;0.98;0.73;;;23.00;62.70;;;;;;6197940;28;20444;-74
2023/08/25 02:13:03;;;;;;;1.70;1.00;;;23.00;62.80;;;;;;6197911;28;20073;-74
2023/08/25 02:16:04;;;;;;;0.70;0.60;;;23.00;62.80;;;;;;6198004;28;20413;-74
2023/08/25 02:19:04;;;;;;;1.15;0.80;;;23.00;62.80;;;;;;6197348;28;20025;-74
2023/08/25 02:22:07;;;;;;;1.20;0.90;;;23.00;62.80;;;;;;6197483;28;20058;-74
2023/08/25 02:25:07;;;;;;;0.63;0.60;;;23.00;62.80;;;;;;6197299;28;20035;-74
2023/08/25 02:28:08;;;;;;;0.95;0.88;;;23.00;62.80;;;;;;6197818;28;20050;-74
2023/08/25 02:31:09;;;;;;;1.10;0.80;;;23.00;62.80;;;;;;6197610;28;20311;-74
2023/08/25 02:34:09;;;;;;;0.77;0.70;;;23.00;62.80;;;;;;6197399;28;20094;-75
2023/08/25 02:37:10;;;;;;;0.98;0.88;;;23.00;62.80;;;;;;6197847;28;20279;-74
2023/08/25 02:40:11;;;;;;;0.98;0.80;;;23.00;62.80;;;;;;6196482;28;20474;-74
2023/08/25 02:43:12;;;;;;;0.80;0.70;;;23.00;62.80;;;;;;6197591;28;20033;-74
2023/08/25 02:46:12;;;;;;;1.10;0.80;;;23.00;62.80;;;;;;6197465;28;20485;-74
2023/08/25 02:49:13;;;;;;;1.58;0.77;;;23.00;62.80;;;;;;6197087;28;20121;-74
2023/08/25 02:52:14;;;;;;;0.90;0.70;;;23.00;62.80;;;;;;6197871;28;20023;-74
2023/08/25 02:55:17;;;;;;;1.10;0.80;;;23.00;62.80;;;;;;6197328;28;20444;-74
2023/08/25 02:58:18;;;;;;;0.52;0.52;;;23.00;62.80;;;;;;6196689;28;20105;-73
2023/08/25 03:01:19;;;;;;;1.35;0.85;;;23.00;62.80;;;;;;6196686;28;20033;-74
2023/08/25 03:04:19;;;;;;;0.90;0.68;;;23.00;62.80;;;;;;6200957;28;20392;-74
2023/08/25 03:07:20;;;;;;;0.82;0.60;;;23.00;62.90;;;;;;6197060;28;20183;-74
2023/08/25 03:10:21;;;;;;;0.88;0.80;;;23.00;62.80;;;;;;6196839;28;20519;-74
2023/08/25 03:13:22;;;;;;;0.95;0.80;;;23.00;62.90;;;;;;6196222;28;20472;-74
2023/08/25 03:16:22;;;;;;;1.08;0.70;;;23.00;62.80;;;;;;6197227;28;20749;-74
2023/08/25 03:19:23;;;;;;;0.82;0.80;;;23.00;62.80;;;;;;6196395;28;20049;-74
2023/08/25 03:22:23;;;;;;;0.70;0.70;;;23.00;62.80;;;;;;6196771;28;20022;-74
2023/08/25 03:25:24;;;;;;;0.88;0.70;;;23.00;62.80;;;;;;6196227;28;20256;-74
2023/08/25 03:28:25;;;;;;;1.02;0.88;;;23.00;62.80;;;;;;6196606;28;20524;-73
2023/08/25 03:31:25;;;;;;;0.90;0.80;;;23.00;62.90;;;;;;6196388;28;20022;-74
2023/08/25 03:34:26;;;;;;;0.98;0.75;;;23.00;62.80;;;;;;6195888;28;20041;-74
2023/08/25 03:37:27;;;;;;;0.93;0.77;;;23.00;62.80;;;;;;6196329;28;20027;-74
2023/08/25 03:40:27;;;;;;;1.10;0.95;;;23.00;62.80;;;;;;6195812;28;20501;-74
2023/08/25 03:43:28;;;;;;;0.80;0.70;;;23.00;62.90;;;;;;6198200;28;20056;-74
2023/08/25 03:46:28;;;;;;;0.90;0.75;;;23.00;62.90;;;;;;6196085;28;20441;-74
2023/08/25 03:49:30;;;;;;;0.70;0.60;;;23.00;62.90;;;;;;6195823;28;20026;-73
2023/08/25 03:52:30;;;;;;;1.17;0.80;;;23.00;62.90;;;;;;6192412;28;20057;-74
2023/08/25 03:55:31;;;;;;;0.70;0.52;;;23.00;62.90;;;;;;6195834;28;20022;-74
2023/08/25 03:58:32;;;;;;;0.40;0.40;;;23.00;62.90;;;;;;6195974;28;20027;-74
2023/08/25 04:01:34;;;;;;;1.00;0.70;;;23.00;62.90;;;;;;6196621;28;20515;-75
2023/08/25 04:04:35;;;;;;;1.00;0.80;;;23.00;63.70;;;;;;6195559;28;20041;-74
2023/08/25 04:07:35;;;;;;;0.88;0.80;;;23.00;62.90;;;;;;6195383;28;20477;-74
2023/08/25 04:10:36;;;;;;;0.70;0.70;;;23.00;62.90;;;;;;6194909;28;20053;-74
2023/08/25 04:13:36;;;;;;;1.67;0.70;;;23.00;62.90;;;;;;6195186;28;20027;-73
2023/08/25 04:16:37;;;;;;;1.52;1.02;;;23.00;62.90;;;;;;6195432;28;20030;-74
2023/08/25 04:19:38;;;;;;;1.25;0.82;;;23.00;62.90;;;;;;6195296;28;20022;-74
2023/08/25 04:22:41;;;;;;;1.00;0.88;;;23.00;62.90;;;;;;6194726;28;20092;-74
2023/08/25 04:25:42;;;;;;;0.77;0.60;;;23.00;63.00;;;;;;6194702;28;20050;-72
2023/08/25 04:28:43;;;;;;;0.57;0.57;;;23.00;62.90;;;;;;6195040;28;20062;-74
2023/08/25 04:31:44;;;;;;;0.60;0.55;;;23.00;63.90;;;;;;6195160;28;20022;-74
2023/08/25 04:34:44;;;;;;;0.93;0.80;;;23.00;62.90;;;;;;6194136;28;20022;-74
2023/08/25 04:37:47;;;;;;;0.80;0.70;;;23.00;62.90;;;;;;6194895;28;20043;-74
2023/08/25 04:40:48;;;;;;;0.98;0.88;;;23.00;62.90;;;;;;6194482;28;20137;-74
2023/08/25 04:43:48;;;;;;;1.00;0.90;;;23.00;62.90;;;;;;6194934;28;20023;-74
2023/08/25 04:46:49;;;;;;;0.70;0.70;;;23.00;62.90;;;;;;6194147;28;20064;-73
2023/08/25 04:49:49;;;;;;;0.68;0.65;;;23.00;62.90;;;;;;6195178;28;20030;-74
2023/08/25 04:52:50;;;;;;;0.60;0.50;;;23.00;62.90;;;;;;6194948;28;20026;-74
2023/08/25 04:55:51;;;;;;;1.08;0.70;;;23.00;63.00;;;;;;6194644;28;20088;-74
2023/08/25 04:58:51;;;;;;;0.70;0.70;;;23.00;62.90;;;;;;6194548;28;20034;-74
2023/08/25 05:01:52;;;;;;;0.60;0.60;;;23.00;62.90;;;;;;6191167;28;20053;-74
2023/08/25 05:04:53;;;;;;;0.70;0.70;;;23.00;62.90;;;;;;6194540;28;20074;-74
2023/08/25 05:07:53;;;;;;;0.80;0.55;;;23.00;62.90;;;;;;6194392;28;20037;-74
2023/08/25 05:10:54;;;;;;;0.70;0.70;;;23.00;62.90;;;;;;6196584;28;20175;-74
2023/08/25 05:13:54;;;;;;;0.60;0.60;;;23.00;62.90;;;;;;6196128;28;20018;-74
2023/08/25 05:16:55;;;;;;;0.55;0.52;;;23.00;63.00;;;;;;6193782;28;20105;-74
2023/08/25 05:19:56;;;;;;;0.82;0.70;;;23.00;62.90;;;;;;6194461;28;20061;-74
2023/08/25 05:22:56;;;;;;;1.08;0.80;;;23.00;63.00;;;;;;6193944;28;20030;-74
2023/08/25 05:25:57;;;;;;;0.80;0.80;;;23.00;62.90;;;;;;6194326;28;20066;-74
2023/08/25 05:28:57;;;;;;;0.80;0.70;;;23.00;62.90;;;;;;6193471;28;20034;-74
2023/08/25 05:31:58;;;;;;;1.55;0.70;;;23.00;62.90;;;;;;6194210;28;20030;-74
2023/08/25 05:34:59;;;;;;;1.10;0.70;;;23.00;63.00;;;;;;6194917;28;20081;-74
2023/08/25 05:38:00;;;;;;;0.93;0.70;;;23.00;63.00;;;;;;6198603;28;20105;-74
2023/08/25 05:41:00;;;;;;;0.63;0.63;;;23.00;63.00;;;;;;6198326;28;20030;-74
2023/08/25 05:44:01;;;;;;;0.70;0.60;;;23.00;63.00;;;;;;6198702;28;20091;-74
2023/08/25 05:47:03;;;;;;;0.70;0.63;;;23.00;63.00;;;;;;6198668;28;20045;-74
2023/08/25 05:50:04;;;;;;;1.08;0.80;;;23.00;63.10;;;;;;6198718;28;20022;-74
2023/08/25 05:53:05;;;;;;;0.85;0.70;;;23.00;63.10;;;;;;6200768;28;20462;-74
2023/08/25 05:56:06;;;;;;;0.77;0.60;;;23.00;63.00;;;;;;6197897;28;20066;-74
2023/08/25 05:59:06;;;;;;;0.60;0.57;;;23.00;63.10;;;;;;6196222;28;20125;-74
2023/08/25 06:02:07;;;;;;;0.98;0.82;;;23.00;63.00;;;;;;6195422;28;20484;-74
2023/08/25 06:05:08;;;;;;;0.60;0.55;;;23.00;63.10;;;;;;6199946;28;20038;-74
2023/08/25 06:08:09;;;;;;;0.70;0.60;;;23.00;63.10;;;;;;6200329;28;20485;-74
2023/08/25 06:11:09;;;;;;;0.70;0.70;;;23.00;63.10;;;;;;6200036;28;20082;-74
2023/08/25 06:14:11;;;;;;;0.73;0.60;;;23.00;63.10;;;;;;6200584;28;20105;-74
2023/08/25 06:17:11;;;;;;;0.77;0.70;;;23.00;63.00;;;;;;6200108;28;20030;-74
2023/08/25 06:20:12;;;;;;;0.47;0.47;;;23.00;63.10;;;;;;6199498;28;20070;-74
2023/08/25 06:23:14;;;;;;;0.60;0.60;;;23.00;63.00;;;;;;6200050;28;20014;-74
2023/08/25 06:26:15;;;;;;;0.60;0.60;;;23.00;63.10;;;;;;6199798;28;20030;-73
2023/08/25 06:29:15;;;;;;;0.70;0.60;;;23.00;63.10;;;;;;6199623;28;20034;-74
2023/08/25 06:32:16;;;;;;;0.68;0.68;;;23.00;63.10;;;;;;6188552;28;20042;-74
2023/08/25 06:35:17;;;;;;;0.60;0.60;;;23.00;63.10;;;;;;6190102;28;20339;-73
2023/08/25 06:38:18;;;;;;;0.68;0.68;;;23.00;63.10;;;;;;6198334;28;20173;-74
2023/08/25 06:41:18;;;;;;;1.52;0.90;;;23.00;63.10;;;;;;6196426;28;20066;-73
2023/08/25 06:44:19;;;;;;;0.60;0.50;;;23.00;63.10;;;;;;6187961;28;20559;-73
2023/08/25 06:47:20;;;;;;;0.90;0.80;;;23.00;63.10;;;;;;6197512;28;20050;-74
2023/08/25 06:50:22;;;;;;;0.70;0.70;;;23.00;63.10;;;;;;6197976;28;20033;-74
2023/08/25 06:53:22;;;;;;;0.60;0.60;;;23.00;63.10;;;;;;6198656;28;20155;-74
2023/08/25 06:56:23;;;;;;;0.50;0.50;;;23.00;63.10;;;;;;6197587;28;20019;-74
2023/08/25 06:59:24;;;;;;;0.47;0.47;;;23.00;63.10;;;;;;6197557;28;20472;-74
2023/08/25 07:02:24;;;;;;;1.05;0.80;;;23.00;63.10;;;;;;6198093;28;20042;-74
2023/08/25 07:05:25;;;;;;;0.70;0.60;;;23.00;63.10;;;;;;6197030;28;20034;-75
2023/08/25 07:08:26;;;;;;;0.68;0.65;;;23.00;63.10;;;;;;6198184;28;20033;-74
2023/08/25 07:11:27;;;;;;;0.70;0.70;;;23.00;63.10;;;;;;6197503;28;20502;-74
2023/08/25 07:14:30;;;;;;;1.10;0.70;;;23.00;63.10;;;;;;6197827;28;20037;-74
2023/08/25 07:17:31;;;;;;;0.63;0.63;;;23.00;63.10;;;;;;6198580;28;20444;-74
2023/08/25 07:20:32;;;;;;;0.63;0.63;;;23.00;63.10;;;;;;6198381;28;20034;-75
2023/08/25 07:23:33;;;;;;;0.90;0.73;;;23.00;63.10;;;;;;6197599;28;20030;-73
2023/08/25 07:26:34;;;;;;;0.70;0.60;;;23.00;63.10;;;;;;6196532;28;20037;-74
2023/08/25 07:29:36;;;;;;;1.30;0.80;;;23.00;63.10;;;;;;6198029;28;20489;-73
2023/08/25 07:32:36;;;;;;;0.70;0.70;;;23.00;63.10;;;;;;6197551;28;20381;-73
2023/08/25 07:35:38;;;;;;;0.80;0.70;;;23.00;63.10;;;;;;6197099;28;20026;-74
2023/08/25 07:38:38;;;;;;;0.70;0.70;;;23.00;63.10;;;;;;6197028;28;20412;-73
2023/08/25 07:41:39;;;;;;;0.57;0.57;;;23.00;63.10;;;;;;6193314;28;20050;-74
2023/08/25 07:44:39;;;;;;;0.50;0.50;;;23.00;63.10;;;;;;6191179;28;20104;-74
2023/08/25 07:47:40;;;;;;;0.90;0.80;;;23.00;63.10;;;;;;6196811;28;20267;-74
2023/08/25 07:50:41;;;;;;;0.70;0.70;;;23.00;63.10;;;;;;6196944;28;20038;-74
2023/08/25 07:53:41;;;;;;;0.60;0.60;;;23.00;63.10;;;;;;6196876;28;20026;-72
2023/08/25 07:56:42;;;;;;;1.20;0.80;;;23.00;63.80;;;;;;6197125;28;20022;-73
2023/08/25 07:59:42;;;;;;;0.90;0.60;;;23.00;63.30;;;;;;6197104;28;20105;-73
2023/08/25 08:02:47;;;;;;;2.25;0.75;;;23.10;63.20;;;;;;6197867;28;20080;-73
2023/08/25 08:05:47;;;;;;;4.75;0.80;;;23.10;63.20;;;;;;6197709;28;20073;-73
2023/08/25 08:08:48;;;;;;;0.70;0.70;;;23.10;63.40;;;;;;6198059;28;20049;-72
2023/08/25 08:11:49;;;;;;;0.70;0.70;;;23.20;63.60;;;;;;6196877;28;20034;-73
2023/08/25 08:14:49;;;;;;;3.85;0.70;;;23.20;63.70;;;;;;6196154;28;20029;-72
2023/08/25 08:17:50;;;;;;;2.85;0.80;;;23.20;64.20;;;;;;6197379;28;20030;-74
2023/08/25 08:20:51;;;;;;;14.20;1.05;;;23.20;63.90;;;;;;6197691;28;20428;-73
2023/08/25 08:23:51;;;;;;;3.10;1.30;;;23.30;64.50;;;;;;6196354;28;20172;-73
2023/08/25 08:26:52;;;;;;;5.10;1.67;;;23.30;64.20;;;;;;6194195;28;20121;-73
2023/08/25 08:29:52;;;;;;;3.35;1.02;;;23.20;63.80;;;;;;6199774;28;20038;-73
2023/08/25 08:32:53;;;;;;;1.90;1.05;;;23.20;63.60;;;;;;6193341;28;20030;-73
2023/08/25 08:35:54;;;;;;;13.35;1.98;;;23.20;63.70;;;;;;6195728;28;20038;-72
2023/08/25 08:38:55;;;;;;;5.90;1.92;;;23.20;64.90;;;;;;6195195;28;20034;-73
2023/08/25 08:41:55;;;;;;;6.65;2.13;;;23.30;65.10;;;;;;6184560;28;20062;-73
2023/08/25 08:45:00;;;;;;;6.55;1.83;;;23.30;64.20;;;;;;6195297;28;20034;-73
2023/08/25 08:48:04;;;;;;;4.60;1.70;;;23.30;64.30;;;;;;6195040;28;20042;-73
2023/08/25 08:51:06;;;;;;;6.15;1.95;;;23.30;63.90;;;;;;6195021;28;20723;-73
2023/08/25 08:54:07;;;;;;;7.88;2.00;;;23.20;63.80;;;;;;6195413;28;20018;-74
2023/08/25 08:57:08;;;;;;;6.30;2.40;;;23.30;63.80;;;;;;6194745;28;20404;-73
2023/08/25 09:00:12;;;;;;;9.02;2.40;;;23.30;63.80;;;;;;6195586;28;20069;-72
2023/08/25 09:03:18;;;;;;;9.88;1.90;;;23.20;63.70;;;;;;6194180;28;20033;-73
2023/08/25 09:06:19;;;;;;;8.38;2.30;;;23.20;63.60;;;;;;6195432;28;20405;-72
2023/08/25 09:09:20;;;;;;;5.25;1.77;;;23.30;63.70;;;;;;6194006;28;20057;-73
2023/08/25 09:12:20;;;;;;;5.90;2.35;;;23.20;63.50;;;;;;6194810;28;20556;-73
2023/08/25 09:15:29;;;;;;;6.57;1.95;;;23.30;63.70;;;;;;6195205;28;20379;-73
2023/08/25 09:18:34;;;;;;;6.13;2.13;;;23.30;63.60;;;;;;6161516;28;20034;-73
2023/08/25 09:21:35;;;;;;;4.70;2.05;;;23.30;63.60;;;;;;6177165;28;20756;-72
2023/08/25 09:24:37;;;;;;;8.35;2.38;;;23.20;63.50;;;;;;6204776;28;20080;-72
2023/08/25 09:27:40;;;;;;;6.65;2.15;;;23.30;63.60;;;;;;6201811;28;20027;-73
2023/08/25 09:30:42;;;;;;;4.85;2.00;;;23.30;63.60;;;;;;6195100;28;20650;-73
2023/08/25 09:33:42;;;;;;;3.83;1.90;;;23.30;63.60;;;;;;6194786;28;20023;-73
2023/08/25 09:36:55;;;;;;;9.95;2.45;;;23.30;63.50;;;;;;6194619;28;20405;-73
2023/08/25 09:39:58;;;;;;;5.40;2.22;;;23.30;63.50;;;;;;6194737;28;20022;-73
2023/08/25 09:43:03;;;;;;;4.32;1.55;;;23.30;63.50;;;;;;6194407;28;20058;-73
2023/08/25 09:46:10;;;;;;;5.00;1.90;;;23.30;63.80;;;;;;6195262;28;20117;-73
2023/08/25 09:49:13;;;;;;;4.55;1.73;;;23.30;63.50;;;;;;6193142;28;20037;-75
2023/08/25 09:52:17;;;;;;;5.55;1.75;;;23.30;63.40;;;;;;6194928;28;20022;-74
2023/08/25 09:55:18;;;;;;;4.18;1.70;;;23.30;64.10;;;;;;6194131;28;20026;-72
2023/08/25 09:58:19;;;;;;;7.82;2.20;;;23.40;63.50;;;;;;6193035;28;20026;-72
2023/08/25 10:01:20;;;;;;;3.78;1.90;;;23.50;63.70;;;;;;6171221;28;20033;-72
2023/08/25 10:04:21;;;;;;;17.65;3.10;;;23.50;63.60;;;;;;6185119;28;20041;-73
2023/08/25 10:07:22;;;;;;;58.83;13.02;;;23.50;63.70;;;;;;6180378;28;20110;-72
2023/08/25 10:10:24;;;;;;;11.55;2.65;;;23.50;63.70;;;;;;6184725;28;20050;-72
2023/08/25 10:13:28;;;;;;;8.23;2.80;;;23.50;63.60;;;;;;6194359;28;20030;-74
2023/08/25 10:16:31;;;;;;;15.90;3.22;;;23.50;63.70;;;;;;6194596;28;20477;-73
2023/08/25 10:19:35;;;;;;;64.78;12.80;;;23.50;63.60;;;;;;6194520;28;20026;-72
2023/08/25 10:22:38;;;;;;;50.17;9.55;;;23.70;63.70;;;;;;6180315;28;20235;-72
2023/08/25 10:25:38;;;;;;;36.97;7.82;;;23.70;63.20;;;;;;6198804;28;20077;-74
2023/08/25 10:28:39;;;;;;;57.85;10.23;;;23.70;63.70;;;;;;6198308;28;20382;-73
2023/08/25 10:31:51;;;;;;;46.47;9.05;;;23.80;63.40;;;;;;6199008;28;20030;-73
2023/08/25 10:34:53;;;;;;;44.00;9.43;;;23.80;63.70;;;;;;6175551;28;20026;-73
2023/08/25 10:37:53;;;;;;;57.47;13.32;;;23.70;63.50;;;;;;6193365;28;20033;-74
2023/08/25 10:41:11;;;;;;;42.33;10.48;;;23.70;63.40;;;;;;6198317;28;20030;-71
2023/08/25 10:44:21;;;;;;;38.95;10.18;;;23.70;63.90;;;;;;6199685;28;20044;-75
2023/08/25 10:47:23;;;;;;;36.00;8.18;;;23.80;63.80;;;;;;6198892;28;20480;-74
2023/08/25 10:50:24;;;;;;;48.30;10.10;;;23.90;63.50;;;;;;6198006;28;20077;-73
2023/08/25 10:53:36;;;;;;;38.13;8.93;;;23.90;63.80;;;;;;6198307;28;20023;-73
2023/08/25 10:56:39;;;;;;;39.28;8.57;;;23.90;64.00;;;;;;6198393;28;20034;-72
2023/08/25 10:59:39;;;;;;;47.95;10.10;;;24.00;64.00;;;;;;6197663;28;20094;-74
2023/08/25 11:02:40;;;;;;;41.65;9.65;;;24.00;64.10;;;;;;6198216;28;20026;-75
2023/08/25 11:05:43;;;;;;;37.90;9.68;;;24.10;64.40;;;;;;6197065;28;20041;-75
2023/08/25 11:08:45;;;;;;;34.97;8.63;;;24.10;64.10;;;;;;6198031;28;20027;-74
2023/08/25 11:11:54;;;;;;;42.08;9.70;;;24.10;64.10;;;;;;6197742;28;20069;-74
2023/08/25 11:14:56;;;;;;;41.95;8.13;;;24.10;63.90;;;;;;6197588;28;20053;-72
2023/08/25 11:17:57;;;;;;;46.25;8.85;;;24.10;63.90;;;;;;6197457;28;20022;-72
2023/08/25 11:20:59;;;;;;;33.00;8.25;;;24.10;64.30;;;;;;6193528;28;20041;-72
2023/08/25 11:24:00;;;;;;;26.05;8.00;;;24.20;63.80;;;;;;6197871;28;20030;-72
2023/08/25 11:27:07;;;;;;;43.75;8.80;;;24.10;63.90;;;;;;6196395;28;20026;-73
2023/08/25 11:30:09;;;;;;;31.00;8.13;;;24.00;63.70;;;;;;6197148;28;20054;-73
2023/08/25 11:33:10;;;;;;;33.67;8.23;;;23.90;63.80;;;;;;6196595;28;20058;-72
2023/08/25 11:36:15;;;;;;;26.52;8.05;;;23.90;63.90;;;;;;6197630;28;20103;-72
2023/08/25 11:39:18;;;;;;;26.73;7.07;;;23.80;63.80;;;;;;6196720;28;20038;-72
2023/08/25 11:42:22;;;;;;;26.90;7.65;;;23.80;63.90;;;;;;6189307;28;21659;-72
2023/08/25 11:45:27;;;;;;;22.77;7.47;;;23.80;63.90;;;;;;6196974;28;20034;-72
2023/08/25 11:48:28;;;;;;;24.42;7.13;;;23.70;63.90;;;;;;6195370;28;20035;-72
2023/08/25 11:51:30;;;;;;;20.10;6.97;;;23.70;63.90;;;;;;6193245;28;20049;-71
2023/08/25 11:54:31;;;;;;;21.73;7.05;;;23.70;63.90;;;;;;6196740;28;20049;-71
2023/08/25 11:57:33;;;;;;;26.45;6.35;;;23.70;64.00;;;;;;6197012;28;20080;-71
2023/08/25 12:00:38;;;;;;;25.58;6.35;;;23.60;64.10;;;;;;6196495;28;20022;-71
2023/08/25 12:03:39;;;;;;;23.67;7.07;;;23.60;64.00;;;;;;6196791;28;20058;-71
2023/08/25 12:06:40;;;;;;;23.17;6.68;;;23.60;64.00;;;;;;6196161;28;20065;-72
2023/08/25 12:09:41;;;;;;;21.23;6.20;;;23.60;64.10;;;;;;6195536;28;20061;-71
2023/08/25 12:12:41;;;;;;;26.88;6.90;;;23.60;64.20;;;;;;6195906;28;20097;-70
2023/08/25 12:15:45;;;;;;;21.20;6.45;;;23.60;64.20;;;;;;6196261;28;20042;-71
2023/08/25 12:18:51;;;;;;;19.50;6.43;;;23.50;65.00;;;;;;6196328;28;20053;-72
2023/08/25 12:21:57;;;;;;;18.88;6.63;;;23.50;64.20;;;;;;6197527;28;20032;-72
2023/08/25 12:24:57;;;;;;;18.98;6.32;;;23.50;64.10;;;;;;6196335;28;20045;-72
2023/08/25 12:27:59;;;;;;;15.80;5.15;;;23.50;64.10;;;;;;6197049;28;20022;-71
2023/08/25 12:31:01;;;;;;;17.90;6.00;;;23.50;64.10;;;;;;6197094;28;20058;-72
2023/08/25 12:34:02;;;;;;;18.17;5.57;;;23.50;64.10;;;;;;6197091;28;20037;-71
2023/08/25 12:37:05;;;;;;;16.25;5.53;;;23.50;64.10;;;;;;6197058;28;20053;-71
2023/08/25 12:40:07;;;;;;;13.20;5.00;;;23.50;64.10;;;;;;6196381;28;20034;-71
2023/08/25 12:43:07;;;;;;;15.38;5.32;;;23.50;64.20;;;;;;6197348;28;20072;-71
2023/08/25 12:46:08;;;;;;;16.40;5.53;;;23.50;64.10;;;;;;6195924;28;20038;-71
2023/08/25 12:49:09;;;;;;;15.98;5.50;;;23.50;64.10;;;;;;6196821;28;20053;-72
2023/08/25 12:52:09;;;;;;;11.80;4.90;;;23.50;64.10;;;;;;6196502;28;20030;-71
2023/08/25 12:55:14;;;;;;;10.30;4.47;;;23.50;64.10;;;;;;6196511;28;20417;-72
2023/08/25 12:58:15;;;;;;;15.73;5.65;;;23.50;64.00;;;;;;6196589;28;20018;-71
2023/08/25 13:01:15;;;;;;;13.93;5.03;;;23.50;64.00;;;;;;6196311;28;20067;-71
2023/08/25 13:04:16;;;;;;;15.10;4.93;;;23.40;64.00;;;;;;6196143;28;20478;-71
2023/08/25 13:07:18;;;;;;;12.57;4.47;;;23.40;64.00;;;;;;6196639;28;20029;-71
2023/08/25 13:10:19;;;;;;;14.20;5.22;;;23.40;64.00;;;;;;6196025;28;20054;-71
2023/08/25 13:13:20;;;;;;;17.73;4.75;;;23.40;64.00;;;;;;6196149;28;20034;-72
2023/08/25 13:16:20;;;;;;;14.75;4.65;;;23.40;64.00;;;;;;6196183;28;20553;-72
2023/08/25 13:19:21;;;;;;;12.27;5.20;;;23.40;64.00;;;;;;6196019;28;20034;-71
2023/08/25 13:22:22;;;;;;;8.48;3.63;;;23.40;64.00;;;;;;6196273;28;20081;-70
2023/08/25 13:25:22;;;;;;;12.23;4.55;;;23.40;64.00;;;;;;6195629;28;20083;-71
2023/08/25 13:28:23;;;;;;;11.32;4.43;;;23.40;64.00;;;;;;6196273;28;20026;-72
2023/08/25 13:31:24;;;;;;;11.50;4.03;;;23.40;64.10;;;;;;6196131;28;20073;-72
2023/08/25 13:34:24;;;;;;;9.43;3.55;;;23.40;64.00;;;;;;6195340;28;20031;-71
2023/08/25 13:37:25;;;;;;;10.45;4.65;;;23.30;64.00;;;;;;6196326;28;20022;-71
2023/08/25 13:40:26;;;;;;;8.40;4.03;;;23.30;64.00;;;;;;6194237;28;20113;-72
2023/08/25 13:43:28;;;;;;;11.10;4.30;;;23.30;63.90;;;;;;6185617;28;20026;-71
2023/08/25 13:46:29;;;;;;;11.05;4.20;;;23.30;64.00;;;;;;6186911;28;20042;-71
2023/08/25 13:49:29;;;;;;;8.88;4.00;;;23.30;64.00;;;;;;6194454;28;20037;-71
2023/08/25 13:52:30;;;;;;;10.63;4.18;;;23.30;64.00;;;;;;6194832;28;20042;-72
2023/08/25 13:55:31;;;;;;;11.20;4.10;;;23.30;64.00;;;;;;6193195;28;20073;-72
2023/08/25 13:58:31;;;;;;;11.18;3.95;;;23.30;64.00;;;;;;6197880;28;20037;-72
2023/08/25 14:01:32;;;;;;;11.55;3.83;;;23.30;64.00;;;;;;6198006;28;20070;-71
2023/08/25 14:04:33;;;;;;;8.93;3.88;;;23.30;64.00;;;;;;6197690;28;20035;-72
2023/08/25 14:07:35;;;;;;;7.53;3.85;;;23.30;64.10;;;;;;6198555;28;20034;-72
2023/08/25 14:10:35;;;;;;;8.73;3.70;;;23.30;64.00;;;;;;6197378;28;21423;-72
2023/08/25 14:13:36;;;;;;;10.13;4.60;;;23.30;64.10;;;;;;6198793;28;20492;-70
2023/08/25 14:16:36;;;;;;;8.05;3.33;;;23.30;64.10;;;;;;6197222;28;20217;-72
2023/08/25 14:19:37;;;;;;;6.47;3.22;;;23.30;64.10;;;;;;6198704;28;20037;-71
2023/08/25 14:22:38;;;;;;;7.25;3.38;;;23.30;64.10;;;;;;6198349;28;20065;-72
2023/08/25 14:25:38;;;;;;;7.97;3.38;;;23.30;64.10;;;;;;6197626;28;20035;-72
2023/08/25 14:28:39;;;;;;;12.38;3.92;;;23.30;64.00;;;;;;6198024;28;20034;-71
2023/08/25 14:31:40;;;;;;;7.28;3.03;;;23.30;64.10;;;;;;6197323;28;20076;-72
2023/08/25 14:34:41;;;;;;;8.55;3.40;;;23.30;64.20;;;;;;6197338;28;20034;-72
2023/08/25 14:37:41;;;;;;;8.60;3.22;;;23.30;64.20;;;;;;6197303;28;20026;-71
2023/08/25 14:40:46;;;;;;;7.70;3.42;;;23.30;64.20;;;;;;6197219;28;20118;-71
2023/08/25 14:43:46;;;;;;;5.43;2.80;;;23.30;64.10;;;;;;6197462;28;20019;-72
2023/08/25 14:46:47;;;;;;;5.45;2.85;;;23.30;64.10;;;;;;6189807;28;20049;-72
2023/08/25 14:49:48;;;;;;;5.78;2.80;;;23.30;64.20;;;;;;6189605;28;20037;-72
2023/08/25 14:52:49;;;;;;;8.00;3.45;;;23.30;64.20;;;;;;6196524;28;20026;-71
2023/08/25 14:55:49;;;;;;;5.75;2.97;;;23.30;64.20;;;;;;6197096;28;20027;-71
2023/08/25 14:58:50;;;;;;;7.63;3.42;;;23.30;64.20;;;;;;6197548;28;20030;-71
2023/08/25 15:01:52;;;;;;;5.47;2.67;;;23.30;64.20;;;;;;6196791;28;20026;-72
2023/08/25 15:04:53;;;;;;;6.20;2.72;;;23.30;64.20;;;;;;6196788;28;20048;-72
2023/08/25 15:07:53;;;;;;;5.15;2.75;;;23.30;64.20;;;;;;6195721;28;20049;-72
2023/08/25 15:10:54;;;;;;;7.38;3.42;;;23.30;64.20;;;;;;6196560;28;20490;-72
2023/08/25 15:13:55;;;;;;;6.68;2.92;;;23.30;64.20;;;;;;6196971;28;20117;-72
2023/08/25 15:16:55;;;;;;;6.95;3.28;;;23.30;64.20;;;;;;6196489;28;20381;-71
2023/08/25 15:19:56;;;;;;;5.43;2.95;;;23.30;64.20;;;;;;6196797;28;20385;-71
2023/08/25 15:22:57;;;;;;;6.07;2.88;;;23.30;64.20;;;;;;6203562;28;20034;-71
2023/08/25 15:25:58;;;;;;;4.28;2.22;;;23.30;64.20;;;;;;6217423;28;20080;-71
2023/08/25 15:28:59;;;;;;;6.15;2.97;;;23.20;64.10;;;;;;6196525;28;20022;-71
2023/08/25 15:31:59;;;;;;;5.75;2.90;;;23.20;64.10;;;;;;6196031;28;20021;-72
2023/08/25 15:35:00;;;;;;;4.28;2.53;;;23.30;64.20;;;;;;6196801;28;20033;-72
2023/08/25 15:38:01;;;;;;;6.03;2.75;;;23.20;64.10;;;;;;6194946;28;20030;-71
2023/08/25 15:41:19;;;;;;;6.10;3.25;;;23.20;64.10;;;;;;6196291;28;20176;-71